This is the latest recevied weather packets stored in our database for station/object KC0SIQ-13. If no packets are shown the sender has not sent any weather packets the latest 10 day(s).
| Time | Temp. | Humidity | Pressure | Rain* | Wind** | Luminosity | Snow |
|---|---|---|---|---|---|---|---|
| 1777646350 | 8.89° C | 53% | 1018.7 hPa | 0 mm | - | 359 W/m² | - |
| 1777646047 | 8.89° C | 54% | 1018.8 hPa | 0 mm | - | 335 W/m² | - |
| 1777645744 | 8.89° C | 52% | 1018.5 hPa | 0 mm | - | 298 W/m² | - |
| 1777645440 | 8.33° C | 54% | 1018.4 hPa | 0 mm | - | 267 W/m² | - |
| 1777645136 | 7.22° C | 59% | 1018.8 hPa | 0 mm | - | 261 W/m² | - |
| 1777644833 | 6.67° C | 61% | 1018.7 hPa | 0 mm | - | 233 W/m² | - |
| 1777644531 | 5.56° C | 65% | 1018.8 hPa | 0 mm | - | 185 W/m² | - |
| 1777644227 | 5.56° C | 66% | 1018.7 hPa | 0 mm | - | 39 W/m² | - |
| 1777643923 | 5° C | 66% | 1018.8 hPa | 0 mm | - | 33 W/m² | - |
| 1777643621 | 5° C | 66% | 1018.5 hPa | 0 mm | - | 32 W/m² | - |
| 1777643318 | 4.44° C | 68% | 1018.3 hPa | 0 mm | - | 30 W/m² | - |
| 1777643014 | 3.89° C | 69% | 1018.7 hPa | 0 mm | - | 30 W/m² | - |
| 1777642710 | 3.33° C | 73% | 1018.5 hPa | 0 mm | - | 24 W/m² | - |
| 1777642408 | 2.78° C | 74% | 1018.7 hPa | 0 mm | - | 25 W/m² | - |
| 1777642104 | 2.22° C | 77% | 1018.7 hPa | 0 mm | - | 20 W/m² | - |
| 1777641800 | 1.67° C | 83% | 1018.5 hPa | 0 mm | - | 21 W/m² | - |
| 1777641495 | 0.56° C | 91% | 1018.5 hPa | 0 mm | - | 22 W/m² | - |
| 1777641191 | 0° C | 95% | 1018.4 hPa | 0 mm | - | 18 W/m² | - |
| 1777640887 | 0° C | 96% | 1018.8 hPa | 0 mm | - | 18 W/m² | - |
| 1777640585 | -0.56° C | 96% | 1018.5 hPa | 0 mm | - | 17 W/m² | - |
| 1777640281 | -1.11° C | 96% | 1018.2 hPa | 0 mm | - | 16 W/m² | - |
| 1777639977 | -1.11° C | 96% | 1018.4 hPa | 0 mm | - | 15 W/m² | - |
| 1777639674 | -1.67° C | 96% | 1018.5 hPa | 0 mm | - | 13 W/m² | - |
| 1777639373 | -1.67° C | 96% | 1018.3 hPa | 0 mm | - | 12 W/m² | - |
| 1777639068 | -2.22° C | 96% | 1018.3 hPa | 0 mm | - | 11 W/m² | - |
* Rain latest hour (hover to see other rain measurements)
** Current wind speed in m/s (hover to see current wind gust speed)